SAS910 KEWR-EKCH
Flight info
| Callsign | SAS910 |
|---|---|
| Flight time | N/A |
| Altitude | 37000 |
| Route | MERIT DCT HFD DCT PUT DCT DANOL DCT ALLRY/M078F390 DCT 51N050W 53N040W 55N030W 56N020W DCT PIKIL DCT SOVED/N0439F390 DCT IBROD DCT OKPAL DCT ELSAN DCT VAXIT DCT TESPI |
| Aircraft | A343/H-SDE2E3FGHIJ4J5M1RWXY/LB1D1 |
Departure
| Time | N/A |
|---|---|
| Airport | Newark Liberty International Airport (KEWR) |
Arrival
| Time | 2026-05-04 16:28 |
|---|---|
| Airport | Copenhagen Kastrup Airport (EKCH) |
| Time | Latitude | Longitude | Altitude | Speed | Heading |
|---|---|---|---|---|---|
| 2026-05-04 16:03 | 56.03344 | 9.53475 | 32221 ft | 483 kts | 103° |
| 2026-05-04 16:03 | 56.02577 | 9.59315 | 31493 ft | 483 kts | 103° |
| 2026-05-04 16:03 | 56.01811 | 9.65129 | 30955 ft | 479 kts | 103° |
| 2026-05-04 16:04 | 56.01046 | 9.70903 | 30479 ft | 474 kts | 103° |
| 2026-05-04 16:04 | 55.99535 | 9.82253 | 29411 ft | 465 kts | 104° |
| 2026-05-04 16:04 | 55.98788 | 9.87827 | 28915 ft | 459 kts | 104° |
| 2026-05-04 16:05 | 55.98049 | 9.93328 | 28422 ft | 454 kts | 104° |
| 2026-05-04 16:05 | 55.97310 | 9.98803 | 27916 ft | 450 kts | 104° |
| 2026-05-04 16:05 | 55.95851 | 10.09559 | 26930 ft | 442 kts | 104° |
| 2026-05-04 16:06 | 55.95128 | 10.14863 | 26452 ft | 438 kts | 104° |
| 2026-05-04 16:06 | 55.93211 | 10.28826 | 25132 ft | 432 kts | 104° |
| 2026-05-04 16:07 | 55.92251 | 10.35771 | 24490 ft | 430 kts | 105° |
| 2026-05-04 16:07 | 55.90110 | 10.51150 | 22981 ft | 426 kts | 105° |
| 2026-05-04 16:08 | 55.89409 | 10.56255 | 22611 ft | 421 kts | 104° |
| 2026-05-04 16:08 | 55.87602 | 10.71422 | 21258 ft | 415 kts | 103° |
| 2026-05-04 16:09 | 55.86387 | 10.81460 | 20316 ft | 412 kts | 103° |
| 2026-05-04 16:09 | 55.85171 | 10.91371 | 19378 ft | 408 kts | 104° |
| 2026-05-04 16:10 | 55.83843 | 11.01117 | 18478 ft | 402 kts | 107° |
| 2026-05-04 16:11 | 55.81687 | 11.15405 | 17055 ft | 394 kts | 107° |
| 2026-05-04 16:11 | 55.80985 | 11.20095 | 16595 ft | 391 kts | 106° |
| 2026-05-04 16:12 | 55.78965 | 11.33608 | 16018 ft | 363 kts | 107° |
| 2026-05-04 16:12 | 55.77272 | 11.46311 | 15384 ft | 347 kts | 98° |
| 2026-05-04 16:13 | 55.76793 | 11.54794 | 14831 ft | 343 kts | 96° |
| 2026-05-04 16:13 | 55.76332 | 11.63178 | 14283 ft | 340 kts | 96° |
| 2026-05-04 16:14 | 55.75866 | 11.71445 | 13413 ft | 331 kts | 96° |
| 2026-05-04 16:14 | 55.75410 | 11.79378 | 12368 ft | 311 kts | 96° |
| 2026-05-04 16:15 | 55.74750 | 11.90755 | 11445 ft | 312 kts | 97° |
| 2026-05-04 16:16 | 55.74288 | 11.98511 | 10816 ft | 318 kts | 96° |
| 2026-05-04 16:16 | 55.73586 | 12.10200 | 9967 ft | 316 kts | 96° |
| 2026-05-04 16:17 | 55.73120 | 12.17915 | 9325 ft | 313 kts | 96° |
| 2026-05-04 16:18 | 55.72413 | 12.29350 | 8311 ft | 308 kts | 96° |
| 2026-05-04 16:18 | 55.72182 | 12.33124 | 7996 ft | 306 kts | 96° |
| 2026-05-04 16:19 | 55.71478 | 12.44276 | 7028 ft | 302 kts | 96° |
| 2026-05-04 16:19 | 55.71345 | 12.51664 | 6352 ft | 299 kts | 72° |
| 2026-05-04 16:20 | 55.73961 | 12.61344 | 5379 ft | 289 kts | 59° |
| 2026-05-04 16:20 | 55.76383 | 12.66782 | 4761 ft | 275 kts | 37° |
| 2026-05-04 16:21 | 55.80416 | 12.73014 | 3750 ft | 242 kts | 37° |
| 2026-05-04 16:22 | 55.82660 | 12.77274 | 3009 ft | 235 kts | 66° |
| 2026-05-04 16:22 | 55.81227 | 12.84736 | 2992 ft | 223 kts | 126° |
| 2026-05-04 16:23 | 55.77764 | 12.89078 | 2998 ft | 207 kts | 199° |
| 2026-05-04 16:24 | 55.73335 | 12.83509 | 2936 ft | 180 kts | 225° |
| 2026-05-04 16:25 | 55.71450 | 12.80603 | 2416 ft | 180 kts | 226° |
| 2026-05-04 16:26 | 55.67736 | 12.74823 | 1427 ft | 176 kts | 227° |
| 2026-05-04 16:26 | 55.65283 | 12.71013 | 763 ft | 135 kts | 226° |
| 2026-05-04 16:27 | 55.63884 | 12.68835 | 405 ft | 135 kts | 226° |
| 2026-05-04 16:28 | 55.61824 | 12.65645 | 25 ft | 107 kts | 222° |
| 2026-05-04 16:28 | 55.61186 | 12.64260 | 22 ft | 16 kts | 255° |
| 2026-05-04 16:29 | 55.61494 | 12.64357 | 21 ft | 21 kts | 33° |
| 2026-05-04 16:30 | 55.61921 | 12.64850 | 23 ft | 24 kts | 32° |
| 2026-05-04 16:31 | 55.62166 | 12.65098 | 21 ft | 13 kts | 358° |
| 2026-05-04 16:31 | 55.62343 | 12.64785 | 21 ft | 8 kts | 9° |
| 2026-05-04 16:32 | 55.62416 | 12.64842 | 23 ft | 6 kts | 79° |
| 2026-05-04 16:33 | 55.62419 | 12.64918 | 23 ft | 0 kts | 89° |